Hlavní strana
METAR-TAF:

METAR-TAF

Letiště :

Atyrau, Kazachstán

zeměpisná šířka: 47-07-19N, zeměpisná délka: 051-49-17E, výška: -22 m

Aktuální stav počasí

Zpráva byla vytvořena před 27 minutami, v 02:30 UTC
Severozápadní vítr 6 kt
Teplota 1°C
Vlhkost vzduchu 86%
Tlak 1021 hPa
Viditelnost 10 km a více
Polojasno ve výšce 3300 ft

METAR: UATG 290230Z 32003MPS 9999 SCT033 01/M01 Q1021 R32/CLRD70 NOSIG RMK QFE768/1024

Čas: 08:57 (02:57 UTC)

Předpověď počasí

Zpráva byla vytvořena před 3 hodinami a 57 minutami, v 23:00 UTC
Předpověď platná od 29 v 00 UTC do 29 v 24 UTC
Severozápadní vítr 10 kt
Viditelnost 10 km a více
Oblačno až skoro zataženo ve výšce 3300 ft, Cumulonimbus.
Změna
od 29 v 04 UTC do 29 v 06 UTC
Severní vítr 19 kt
Změna
od 29 v 13 UTC do 29 v 15 UTC
Severoseverovýchodní vítr 10 kt

TAF: UATG 282300Z 2900/2924 32005MPS 9999 BKN033CB TX12/2911Z TN01/2902Z BECMG 2904/2906 36010MPS BECMG 2913/2915 02005MPS

Stav a předpovědi počasí z více než 4 000 letišť (zprávy METAR a TAF).

Červené a žluté tečky na mapě představují dostupné meteorologické stanice.

Když kurzor umístíte na tečku, zobrazí se název stanice.

Pak kliknutím zobrazíte stav a předpověď počasí.

Chcete-li změnit mapu, kliknutím na zelené tlačítko se znaménkem +mapu přiblížíte, kliknutím na zelené tlačítko se znaménkem – mapu oddálíte a kliknutím na zelené šipky přejdete na sousední mapy.


METAR-TAF: